createdAt,value
2023-03-12T00:00:28.490Z,32.11
2023-03-12T00:03:01.245Z,32.00
2023-03-12T00:05:31.273Z,32.01
2023-03-12T00:08:01.470Z,31.86
2023-03-12T00:10:32.317Z,31.96
2023-03-12T00:13:02.971Z,31.92
2023-03-12T00:15:33.090Z,31.99
2023-03-12T00:18:04.989Z,31.98
2023-03-12T00:20:35.606Z,31.90
2023-03-12T00:23:06.130Z,32.04
2023-03-12T00:25:36.087Z,31.95
2023-03-12T00:28:06.469Z,31.67
2023-03-12T00:30:36.628Z,32.05
2023-03-12T00:33:08.564Z,31.94
2023-03-12T00:35:40.567Z,32.15
2023-03-12T00:38:10.872Z,31.87
2023-03-12T00:40:41.171Z,31.67
2023-03-12T00:43:11.550Z,31.90
2023-03-12T00:45:41.308Z,31.98
2023-03-12T00:48:12.515Z,31.97
2023-03-12T00:50:42.718Z,31.93
2023-03-12T00:53:12.800Z,31.99
2023-03-12T00:55:43.226Z,32.02
2023-03-12T00:58:13.106Z,31.90
2023-03-12T01:00:43.492Z,31.78
2023-03-12T01:03:19.560Z,32.05
2023-03-12T01:05:54.302Z,32.37
2023-03-12T01:08:26.054Z,31.96
2023-03-12T01:10:56.135Z,32.37
2023-03-12T01:13:26.668Z,32.37
2023-03-12T01:15:56.995Z,32.08
2023-03-12T01:18:29.257Z,31.98
2023-03-12T01:20:59.768Z,32.10
2023-03-12T01:23:30.078Z,32.23
2023-03-12T01:25:59.940Z,32.53
2023-03-12T01:28:30.347Z,32.05
2023-03-12T01:31:00.242Z,32.41
2023-03-12T01:33:32.554Z,32.08
2023-03-12T01:36:02.230Z,31.90
2023-03-12T01:38:32.612Z,32.37
2023-03-12T01:41:02.794Z,32.12
2023-03-12T01:43:35.709Z,32.13
2023-03-12T01:46:26.088Z,32.41
2023-03-12T01:49:04.298Z,31.90
2023-03-12T01:51:42.572Z,32.11
2023-03-12T01:54:19.511Z,31.77
2023-03-12T01:56:51.446Z,32.21
2023-03-12T01:59:27.795Z,32.05
2023-03-12T02:02:00.143Z,31.98
2023-03-12T02:04:34.619Z,32.06
2023-03-12T02:07:10.143Z,32.24
2023-03-12T02:09:45.039Z,32.02
2023-03-12T02:12:15.463Z,31.86
2023-03-12T02:14:46.207Z,31.70
2023-03-12T02:17:16.849Z,31.66
2023-03-12T02:19:58.100Z,31.86
2023-03-12T02:22:29.035Z,31.79
2023-03-12T02:25:06.978Z,31.99
2023-03-12T02:27:42.554Z,31.72
2023-03-12T02:30:16.936Z,31.97
2023-03-12T02:32:49.138Z,31.93
2023-03-12T02:35:19.845Z,31.80
2023-03-12T02:37:55.143Z,32.08
2023-03-12T02:40:31.345Z,31.86
2023-03-12T02:43:05.556Z,32.11
2023-03-12T02:45:38.916Z,31.81
2023-03-12T02:48:11.711Z,31.79
2023-03-12T02:50:42.216Z,32.02
2023-03-12T02:53:12.478Z,32.10
2023-03-12T02:55:42.367Z,31.80
2023-03-12T02:58:14.661Z,32.09
2023-03-12T03:00:45.123Z,31.94
2023-03-12T03:03:15.009Z,32.18
2023-03-12T03:05:44.844Z,31.55
2023-03-12T03:08:14.845Z,31.78
2023-03-12T03:10:44.875Z,32.19
2023-03-12T03:13:17.316Z,32.06
2023-03-12T03:15:47.536Z,31.96
2023-03-12T03:18:17.841Z,32.16
2023-03-12T03:20:48.115Z,32.08
2023-03-12T03:23:17.966Z,31.93
2023-03-12T03:25:49.429Z,31.93
2023-03-12T03:28:22.281Z,31.83
2023-03-12T03:30:55.085Z,31.80
2023-03-12T03:33:25.386Z,32.37
2023-03-12T03:35:59.838Z,32.27
2023-03-12T03:38:31.658Z,31.83
2023-03-12T03:41:01.592Z,32.27
2023-03-12T03:43:33.493Z,32.08
2023-03-12T03:46:06.672Z,32.24
2023-03-12T03:48:37.032Z,32.13
2023-03-12T03:51:12.770Z,32.15
2023-03-12T03:53:42.874Z,32.41
2023-03-12T03:56:16.084Z,32.35
2023-03-12T03:58:48.734Z,32.05
2023-03-12T04:01:19.375Z,32.13
2023-03-12T04:03:49.668Z,31.99
2023-03-12T04:06:19.991Z,32.21
2023-03-12T04:08:49.943Z,32.01
2023-03-12T04:11:22.986Z,32.10
2023-03-12T04:13:55.383Z,31.93
2023-03-12T04:16:25.907Z,32.21
2023-03-12T04:18:56.423Z,32.15
2023-03-12T04:21:26.370Z,32.08
2023-03-12T04:23:56.488Z,32.37
2023-03-12T04:26:26.876Z,32.01
2023-03-12T04:28:59.085Z,32.38
2023-03-12T04:31:28.873Z,32.46
2023-03-12T04:33:58.660Z,32.42
2023-03-12T04:36:29.479Z,32.44
2023-03-12T04:38:59.899Z,32.08
2023-03-12T04:41:30.432Z,32.65
2023-03-12T04:44:02.767Z,32.72
2023-03-12T04:46:33.793Z,32.19
2023-03-12T04:49:04.182Z,32.27
2023-03-12T04:51:35.092Z,32.68
2023-03-12T04:54:05.468Z,32.33
2023-03-12T04:56:35.799Z,32.75
2023-03-12T04:59:08.391Z,32.32
2023-03-12T05:01:40.631Z,32.56
2023-03-12T05:04:11.196Z,32.30
2023-03-12T05:06:41.527Z,32.49
2023-03-12T05:09:11.934Z,32.05
2023-03-12T05:11:41.719Z,32.60
2023-03-12T05:14:15.142Z,32.41
2023-03-12T05:16:45.562Z,32.14
2023-03-12T05:19:16.124Z,32.24
2023-03-12T05:21:47.245Z,32.21
2023-03-12T05:24:19.335Z,32.28
2023-03-12T05:26:49.630Z,32.05
2023-03-12T05:29:21.310Z,32.06
2023-03-12T05:31:51.114Z,32.02
2023-03-12T05:34:21.038Z,32.11
2023-03-12T05:36:50.778Z,32.19
2023-03-12T05:39:21.076Z,32.09
2023-03-12T05:41:51.391Z,31.86
2023-03-12T05:44:23.524Z,32.05
2023-03-12T05:46:53.662Z,31.92
2023-03-12T05:49:25.146Z,31.87
2023-03-12T05:51:55.599Z,31.90
2023-03-12T05:54:25.409Z,31.70
2023-03-12T05:56:56.508Z,31.73
2023-03-12T05:59:28.980Z,31.56
2023-03-12T06:01:59.715Z,31.51
2023-03-12T06:04:30.074Z,31.58
2023-03-12T06:07:00.158Z,31.81
2023-03-12T06:09:29.804Z,31.61
2023-03-12T06:12:00.143Z,31.38
2023-03-12T06:14:31.790Z,31.34
2023-03-12T06:17:01.886Z,31.36
2023-03-12T06:19:31.670Z,31.10
2023-03-12T06:22:02.049Z,31.32
2023-03-12T06:24:32.372Z,31.30
2023-03-12T06:27:02.197Z,30.82
2023-03-12T06:29:33.795Z,30.94
2023-03-12T06:32:03.661Z,30.84
2023-03-12T06:34:34.016Z,30.72
2023-03-12T06:37:04.612Z,30.76
2023-03-12T06:39:35.136Z,30.70
2023-03-12T06:42:05.497Z,30.51
2023-03-12T06:44:38.148Z,30.47
2023-03-12T06:47:08.491Z,30.35
2023-03-12T06:49:39.203Z,30.47
2023-03-12T06:52:09.064Z,30.35
2023-03-12T06:54:39.352Z,30.37
2023-03-12T06:57:10.206Z,30.12
2023-03-12T06:59:42.795Z,30.08
2023-03-12T07:02:13.102Z,30.08
2023-03-12T07:04:42.956Z,30.05
2023-03-12T07:07:13.471Z,29.98
2023-03-12T07:09:43.172Z,29.99
2023-03-12T07:12:13.465Z,29.80
2023-03-12T07:14:45.675Z,30.09
2023-03-12T07:17:15.933Z,29.79
2023-03-12T07:19:48.128Z,29.98
2023-03-12T07:22:19.761Z,29.98
2023-03-12T07:24:49.772Z,29.78
2023-03-12T07:27:19.749Z,29.61
2023-03-12T07:29:51.206Z,29.98
2023-03-12T07:32:21.472Z,29.45
2023-03-12T07:34:51.894Z,29.70
2023-03-12T07:37:22.334Z,29.81
2023-03-12T07:39:55.039Z,29.74
2023-03-12T07:42:25.353Z,29.67
2023-03-12T07:44:57.294Z,29.70
2023-03-12T07:47:27.806Z,29.48
2023-03-12T07:49:58.256Z,29.45
2023-03-12T07:52:28.957Z,29.54
2023-03-12T07:54:59.052Z,29.50
2023-03-12T07:57:29.520Z,29.50
2023-03-12T08:00:01.536Z,29.22
2023-03-12T08:02:31.819Z,29.16
2023-03-12T08:05:02.295Z,28.82
2023-03-12T08:07:35.582Z,29.29
2023-03-12T08:10:09.868Z,29.23
2023-03-12T08:12:40.839Z,29.12
2023-03-12T08:15:15.128Z,29.17
2023-03-12T08:17:45.332Z,29.54
2023-03-12T08:20:16.490Z,29.57
2023-03-12T08:22:46.468Z,29.77
2023-03-12T08:25:16.412Z,29.44
2023-03-12T08:27:46.825Z,29.27
2023-03-12T08:30:19.934Z,29.58
2023-03-12T08:32:50.480Z,29.07
2023-03-12T08:35:20.926Z,29.55
2023-03-12T08:37:51.268Z,29.61
2023-03-12T08:40:21.749Z,29.19
2023-03-12T08:42:52.201Z,29.07
2023-03-12T08:45:24.705Z,29.24
2023-03-12T08:47:54.725Z,29.19
2023-03-12T08:50:26.718Z,29.76
2023-03-12T08:52:57.522Z,29.60
2023-03-12T08:55:28.429Z,29.44
2023-03-12T08:57:59.000Z,29.57
2023-03-12T09:00:32.089Z,29.62
2023-03-12T09:03:01.935Z,29.79
2023-03-12T09:05:32.384Z,30.17
2023-03-12T09:08:02.915Z,29.42
2023-03-12T09:10:34.027Z,29.72
2023-03-12T09:13:04.359Z,29.84
2023-03-12T09:15:36.412Z,29.73
2023-03-12T09:18:07.056Z,29.62
2023-03-12T09:20:36.857Z,29.50
2023-03-12T09:23:07.834Z,29.71
2023-03-12T09:25:37.794Z,29.56
2023-03-12T09:28:08.906Z,29.66
2023-03-12T09:30:41.288Z,29.85
2023-03-12T09:33:12.176Z,29.80
2023-03-12T09:35:42.445Z,29.41
2023-03-12T09:38:17.171Z,29.33
2023-03-12T09:40:49.956Z,29.38
2023-03-12T09:43:30.630Z,29.74
2023-03-12T09:46:04.573Z,28.94
2023-03-12T09:48:38.199Z,29.29
2023-03-12T09:51:18.744Z,29.39
2023-03-12T09:53:54.170Z,29.01
2023-03-12T09:56:25.774Z,28.96
2023-03-12T09:58:56.547Z,28.40
2023-03-12T10:01:46.830Z,28.71
2023-03-12T10:04:48.690Z,28.93
2023-03-12T10:07:36.545Z,28.41
2023-03-12T10:10:46.220Z,28.53
2023-03-12T10:13:50.268Z,28.54
2023-03-12T10:16:50.523Z,28.36
2023-03-12T10:19:51.976Z,28.15
2023-03-12T10:22:48.692Z,28.47
2023-03-12T10:25:30.146Z,28.51
2023-03-12T10:28:13.840Z,27.93
2023-03-12T10:30:52.739Z,28.14
2023-03-12T10:33:26.108Z,28.25
2023-03-12T10:35:58.709Z,28.18
2023-03-12T10:38:33.029Z,28.37
2023-03-12T10:41:03.603Z,27.96
2023-03-12T10:43:35.554Z,27.52
2023-03-12T10:46:34.641Z,27.74
2023-03-12T10:49:36.506Z,27.56
2023-03-12T10:52:17.988Z,27.39
2023-03-12T10:54:50.535Z,27.73
2023-03-12T10:57:22.037Z,27.41
2023-03-12T10:59:52.224Z,27.54
2023-03-12T11:02:40.084Z,27.82
2023-03-12T11:05:25.651Z,27.59
2023-03-12T11:07:58.164Z,27.12
2023-03-12T11:10:40.073Z,27.06
2023-03-12T11:13:26.558Z,27.59
2023-03-12T11:15:58.225Z,27.26
2023-03-12T11:18:33.028Z,27.05
2023-03-12T11:21:21.959Z,27.28
2023-03-12T11:24:12.875Z,27.34
2023-03-12T11:26:53.463Z,26.99
2023-03-12T11:29:31.842Z,27.32
2023-03-12T11:32:17.142Z,27.43
2023-03-12T11:34:49.908Z,26.97
2023-03-12T11:37:33.238Z,27.25
2023-03-12T11:40:22.820Z,27.58
2023-03-12T11:43:41.984Z,27.32
2023-03-12T11:46:37.239Z,27.10
2023-03-12T11:49:27.279Z,27.01
2023-03-12T11:52:07.833Z,27.47
2023-03-12T11:55:16.898Z,27.27
2023-03-12T11:58:08.175Z,27.44
2023-03-12T12:00:50.267Z,27.19
2023-03-12T12:04:18.862Z,27.31
2023-03-12T12:07:08.778Z,26.84
2023-03-12T12:09:50.598Z,27.08
2023-03-12T12:12:41.887Z,27.29
2023-03-12T12:15:28.499Z,27.55
2023-03-12T12:18:17.197Z,27.47
2023-03-12T12:20:53.347Z,27.49
2023-03-12T12:23:42.897Z,27.39
2023-03-12T12:26:16.388Z,27.17
2023-03-12T12:29:27.835Z,27.18
2023-03-12T12:32:02.045Z,27.06
2023-03-12T12:35:02.455Z,27.39
2023-03-12T12:37:51.279Z,26.99
2023-03-12T12:40:27.100Z,27.12
2023-03-12T12:43:17.728Z,27.06
2023-03-12T12:45:53.030Z,26.79
2023-03-12T12:48:31.410Z,27.22
2023-03-12T12:51:04.166Z,27.23
2023-03-12T12:53:46.232Z,27.15
2023-03-12T12:56:28.125Z,27.10
2023-03-12T12:59:32.365Z,27.45
2023-03-12T13:02:05.585Z,27.23
2023-03-12T13:04:41.330Z,27.04
2023-03-12T13:07:36.118Z,27.15
2023-03-12T13:10:31.058Z,27.07
2023-03-12T13:13:02.492Z,26.93
2023-03-12T13:15:44.128Z,27.17
2023-03-12T13:18:29.643Z,27.22
2023-03-12T13:21:28.588Z,26.92
2023-03-12T13:24:13.917Z,26.96
2023-03-12T13:26:58.104Z,26.87
2023-03-12T13:29:42.298Z,27.36
2023-03-12T13:32:52.553Z,27.32
2023-03-12T13:35:42.211Z,26.81
2023-03-12T13:38:39.903Z,27.27
2023-03-12T13:41:11.158Z,26.92
2023-03-12T13:43:54.994Z,27.18
2023-03-12T13:46:43.386Z,27.12
2023-03-12T13:49:23.506Z,27.12
2023-03-12T13:52:11.034Z,27.17
2023-03-12T13:54:51.064Z,27.75
2023-03-12T13:57:41.568Z,27.30
2023-03-12T14:00:23.616Z,27.62
2023-03-12T14:03:00.777Z,27.08
2023-03-12T14:05:45.632Z,27.63
2023-03-12T14:08:36.292Z,27.45
2023-03-12T14:11:25.904Z,27.09
2023-03-12T14:14:50.819Z,27.32
2023-03-12T14:17:25.800Z,27.59
2023-03-12T14:20:03.085Z,27.46
2023-03-12T14:22:37.326Z,27.44
2023-03-12T14:25:16.950Z,27.69
2023-03-12T14:27:51.249Z,27.55
2023-03-12T14:30:31.145Z,27.35
2023-03-12T14:33:05.446Z,27.47
2023-03-12T14:35:44.675Z,27.37
2023-03-12T14:38:22.699Z,27.44
2023-03-12T14:41:03.177Z,27.81
2023-03-12T14:43:38.115Z,27.50
2023-03-12T14:46:17.722Z,27.50
2023-03-12T14:48:51.854Z,27.42
2023-03-12T14:51:28.615Z,27.93
2023-03-12T14:54:04.973Z,27.50
2023-03-12T14:56:37.415Z,27.80
2023-03-12T14:59:26.936Z,27.73
2023-03-12T15:02:03.930Z,27.66
2023-03-12T15:04:37.026Z,27.44
2023-03-12T15:07:11.593Z,27.76
2023-03-12T15:09:46.721Z,27.60
2023-03-12T15:12:24.107Z,27.62
2023-03-12T15:15:04.781Z,27.63
2023-03-12T15:17:36.892Z,27.67
2023-03-12T15:20:10.344Z,27.64
2023-03-12T15:22:42.990Z,27.79
2023-03-12T15:25:25.788Z,27.47
2023-03-12T15:28:10.543Z,27.67
2023-03-12T15:30:44.500Z,27.52
2023-03-12T15:33:24.980Z,27.51
2023-03-12T15:36:05.661Z,27.33
2023-03-12T15:38:38.626Z,27.36
2023-03-12T15:41:12.170Z,27.50
2023-03-12T15:43:47.389Z,27.88
2023-03-12T15:46:21.718Z,27.55
2023-03-12T15:48:55.163Z,27.60
2023-03-12T15:51:35.532Z,27.55
2023-03-12T15:54:08.887Z,27.54
2023-03-12T15:56:39.205Z,27.34
2023-03-12T15:59:26.888Z,27.84
2023-03-12T16:01:59.889Z,27.79
2023-03-12T16:04:29.529Z,27.57
2023-03-12T16:07:00.971Z,27.86
2023-03-12T16:09:36.063Z,27.75
2023-03-12T16:12:06.677Z,27.78
2023-03-12T16:14:37.414Z,27.75
2023-03-12T16:17:17.450Z,27.85
2023-03-12T16:19:47.649Z,27.80
2023-03-12T16:22:18.233Z,27.81
2023-03-12T16:24:47.880Z,27.81
2023-03-12T16:27:31.640Z,27.79
2023-03-12T16:30:02.665Z,27.96
2023-03-12T16:32:34.430Z,27.75
2023-03-12T16:35:07.855Z,27.74
2023-03-12T16:37:37.762Z,27.76
2023-03-12T16:40:09.893Z,27.83
2023-03-12T16:42:42.140Z,27.85
2023-03-12T16:45:16.339Z,27.85
2023-03-12T16:47:50.819Z,27.81
2023-03-12T16:50:24.295Z,28.25
2023-03-12T16:52:54.732Z,27.75
2023-03-12T16:55:28.445Z,28.11
2023-03-12T16:58:02.704Z,28.04
2023-03-12T17:00:37.345Z,27.99
2023-03-12T17:03:10.360Z,27.98
2023-03-12T17:05:40.467Z,27.98
2023-03-12T17:08:10.241Z,28.19
2023-03-12T17:10:40.138Z,28.03
2023-03-12T17:13:15.587Z,27.94
2023-03-12T17:15:45.986Z,27.79
2023-03-12T17:18:20.888Z,27.79
2023-03-12T17:20:53.000Z,27.98
2023-03-12T17:23:23.873Z,27.96
2023-03-12T17:25:53.490Z,28.05
2023-03-12T17:28:23.581Z,28.05
2023-03-12T17:30:54.098Z,27.87
2023-03-12T17:33:26.679Z,28.03
2023-03-12T17:36:01.766Z,28.09
2023-03-12T17:38:33.130Z,28.16
2023-03-12T17:41:11.420Z,28.09
2023-03-12T17:43:46.917Z,28.10
2023-03-12T17:46:16.812Z,28.20
2023-03-12T17:48:49.296Z,28.46
2023-03-12T17:51:24.462Z,28.31
2023-03-12T17:53:54.341Z,28.20
2023-03-12T17:56:24.025Z,28.54
2023-03-12T17:58:54.379Z,28.16
2023-03-12T18:01:25.805Z,28.34
2023-03-12T18:03:57.704Z,28.35
2023-03-12T18:06:28.341Z,28.16
2023-03-12T18:08:59.188Z,28.37
2023-03-12T18:11:29.528Z,28.45
2023-03-12T18:14:00.129Z,28.14
2023-03-12T18:16:32.378Z,28.44
2023-03-12T18:19:05.676Z,28.39
2023-03-12T18:21:35.655Z,28.48
2023-03-12T18:24:14.035Z,28.13
2023-03-12T18:26:45.700Z,28.50
2023-03-12T18:29:16.087Z,28.47
2023-03-12T18:31:46.485Z,28.39
2023-03-12T18:34:18.557Z,28.43
2023-03-12T18:36:49.009Z,28.61
2023-03-12T18:39:19.217Z,28.52
2023-03-12T18:41:49.486Z,28.51
2023-03-12T18:44:19.854Z,28.25
2023-03-12T18:46:51.128Z,28.33
2023-03-12T18:49:23.371Z,28.29
2023-03-12T18:51:56.343Z,28.40
2023-03-12T18:54:26.718Z,28.37
2023-03-12T18:56:56.943Z,28.50
2023-03-12T18:59:27.240Z,28.31
2023-03-12T19:01:57.833Z,28.46
2023-03-12T19:04:44.886Z,28.20
2023-03-12T19:07:15.332Z,28.28
2023-03-12T19:09:45.130Z,28.48
2023-03-12T19:12:16.006Z,28.54
2023-03-12T19:14:46.372Z,28.50
2023-03-12T19:17:17.030Z,28.58
2023-03-12T19:19:50.202Z,28.42
2023-03-12T19:22:22.513Z,28.51
2023-03-12T19:24:52.442Z,28.55
2023-03-12T19:27:23.054Z,28.58
2023-03-12T19:29:53.086Z,28.54
2023-03-12T19:32:25.363Z,28.49
2023-03-12T19:34:59.657Z,28.58
2023-03-12T19:37:29.696Z,28.68
2023-03-12T19:40:00.003Z,28.40
2023-03-12T19:42:30.430Z,28.52
2023-03-12T19:45:00.465Z,28.52
2023-03-12T19:47:33.557Z,28.33
2023-03-12T19:50:06.227Z,28.35
2023-03-12T19:52:36.067Z,28.49
2023-03-12T19:55:06.642Z,28.60
2023-03-12T19:57:36.842Z,28.55
2023-03-12T20:00:10.292Z,28.52
2023-03-12T20:02:44.074Z,28.44
2023-03-12T20:05:16.422Z,28.66
2023-03-12T20:07:47.203Z,28.77
2023-03-12T20:10:18.042Z,28.55
2023-03-12T20:12:48.299Z,28.46
2023-03-12T20:15:18.733Z,28.39
2023-03-12T20:17:48.562Z,28.36
2023-03-12T20:20:20.171Z,28.41
2023-03-12T20:22:50.221Z,28.28
2023-03-12T20:25:20.645Z,28.28
2023-03-12T20:27:50.986Z,28.06
2023-03-12T20:30:21.104Z,28.31
2023-03-12T20:32:51.370Z,28.37
2023-03-12T20:35:23.750Z,28.30
2023-03-12T20:37:53.722Z,28.56
2023-03-12T20:40:23.443Z,28.21
2023-03-12T20:42:53.636Z,28.07
2023-03-12T20:45:24.038Z,28.09
2023-03-12T20:47:55.815Z,28.26
2023-03-12T20:50:28.246Z,28.05
2023-03-12T20:52:58.423Z,28.11
2023-03-12T20:55:28.833Z,27.94
2023-03-12T20:57:59.062Z,28.02
2023-03-12T21:00:29.059Z,28.03
2023-03-12T21:03:00.060Z,27.85
2023-03-12T21:05:31.719Z,28.22
2023-03-12T21:08:01.313Z,28.03
2023-03-12T21:10:31.829Z,28.07
2023-03-12T21:13:01.702Z,27.81
2023-03-12T21:15:32.022Z,28.00
2023-03-12T21:18:01.807Z,27.94
2023-03-12T21:20:34.013Z,28.09
2023-03-12T21:23:05.259Z,27.77
2023-03-12T21:25:36.941Z,28.19
2023-03-12T21:28:09.256Z,28.05
2023-03-12T21:30:39.442Z,28.04
2023-03-12T21:33:09.268Z,28.17
2023-03-12T21:35:44.986Z,28.15
2023-03-12T21:38:15.775Z,28.41
2023-03-12T21:40:46.134Z,28.46
2023-03-12T21:43:16.344Z,28.42
2023-03-12T21:45:47.668Z,28.40
2023-03-12T21:48:18.018Z,28.72
2023-03-12T21:50:49.789Z,28.63
2023-03-12T21:53:23.735Z,28.88
2023-03-12T21:55:58.432Z,28.85
2023-03-12T21:58:29.566Z,29.08
2023-03-12T22:01:08.129Z,29.11
2023-03-12T22:03:39.416Z,29.28
2023-03-12T22:06:18.744Z,29.52
2023-03-12T22:08:50.757Z,29.47
2023-03-12T22:11:21.722Z,29.49
2023-03-12T22:13:52.703Z,29.75
2023-03-12T22:16:23.172Z,29.75
2023-03-12T22:18:53.499Z,30.20
2023-03-12T22:21:27.378Z,30.26
2023-03-12T22:23:57.792Z,30.16
2023-03-12T22:26:28.637Z,30.62
2023-03-12T22:29:01.667Z,30.62
2023-03-12T22:31:32.723Z,31.02
2023-03-12T22:34:03.320Z,30.96
2023-03-12T22:36:35.028Z,31.05
2023-03-12T22:39:06.063Z,31.11
2023-03-12T22:41:36.377Z,31.36
2023-03-12T22:44:09.745Z,31.65
2023-03-12T22:46:39.697Z,31.57
2023-03-12T22:49:10.016Z,31.61
2023-03-12T22:51:42.282Z,31.89
2023-03-12T22:54:12.314Z,31.97
2023-03-12T22:56:42.760Z,32.04
2023-03-12T22:59:13.113Z,32.39
2023-03-12T23:01:43.513Z,32.22
2023-03-12T23:04:13.951Z,32.41
2023-03-12T23:06:45.795Z,32.47
2023-03-12T23:09:15.801Z,32.51
2023-03-12T23:11:46.068Z,33.02
2023-03-12T23:14:16.141Z,32.80
2023-03-12T23:16:46.389Z,33.07
2023-03-12T23:19:16.480Z,32.98
2023-03-12T23:21:48.740Z,33.33
2023-03-12T23:24:18.859Z,32.96
2023-03-12T23:26:48.928Z,33.21
2023-03-12T23:29:19.397Z,33.32
2023-03-12T23:31:49.832Z,33.43
2023-03-12T23:34:20.408Z,33.61
2023-03-12T23:36:52.995Z,33.69
2023-03-12T23:39:23.259Z,33.58
2023-03-12T23:41:53.066Z,33.77
2023-03-12T23:44:23.072Z,33.52
2023-03-12T23:46:52.644Z,33.74
2023-03-12T23:49:22.219Z,33.71
2023-03-12T23:51:53.486Z,33.92
2023-03-12T23:54:23.887Z,33.81
2023-03-12T23:56:53.950Z,33.81
2023-03-12T23:59:24.075Z,33.87
